sensor_id;sensor_type;location;lat;lon;timestamp;P1;durP1;ratioP1;P2;durP2;ratioP2
6015;SDS011;3036;49.960;8.454;2024-03-02T00:00:39;2.77;;;2.20;;
6015;SDS011;3036;49.960;8.454;2024-03-02T00:03:07;2.33;;;2.23;;
6015;SDS011;3036;49.960;8.454;2024-03-02T00:05:35;3.13;;;2.37;;
6015;SDS011;3036;49.960;8.454;2024-03-02T00:08:02;2.40;;;2.20;;
6015;SDS011;3036;49.960;8.454;2024-03-02T00:10:32;2.27;;;2.07;;
6015;SDS011;3036;49.960;8.454;2024-03-02T00:13:02;2.57;;;2.37;;
6015;SDS011;3036;49.960;8.454;2024-03-02T00:15:34;1.90;;;1.80;;
6015;SDS011;3036;49.960;8.454;2024-03-02T00:18:04;1.87;;;1.73;;
6015;SDS011;3036;49.960;8.454;2024-03-02T00:20:32;2.20;;;2.00;;
6015;SDS011;3036;49.960;8.454;2024-03-02T00:23:00;1.80;;;1.70;;
6015;SDS011;3036;49.960;8.454;2024-03-02T00:25:33;2.10;;;1.90;;
6015;SDS011;3036;49.960;8.454;2024-03-02T00:28:03;3.33;;;1.83;;
6015;SDS011;3036;49.960;8.454;2024-03-02T00:30:38;2.10;;;2.00;;
6015;SDS011;3036;49.960;8.454;2024-03-02T00:33:12;2.13;;;2.00;;
6015;SDS011;3036;49.960;8.454;2024-03-02T00:35:41;2.97;;;2.07;;
6015;SDS011;3036;49.960;8.454;2024-03-02T00:38:09;3.73;;;2.27;;
6015;SDS011;3036;49.960;8.454;2024-03-02T00:40:37;3.87;;;2.90;;
6015;SDS011;3036;49.960;8.454;2024-03-02T00:43:04;4.13;;;2.57;;
6015;SDS011;3036;49.960;8.454;2024-03-02T00:45:31;2.90;;;2.70;;
6015;SDS011;3036;49.960;8.454;2024-03-02T00:47:58;3.20;;;2.90;;
6015;SDS011;3036;49.960;8.454;2024-03-02T00:50:25;2.63;;;2.50;;
6015;SDS011;3036;49.960;8.454;2024-03-02T00:52:53;4.83;;;2.77;;
6015;SDS011;3036;49.960;8.454;2024-03-02T00:55:21;3.00;;;2.67;;
6015;SDS011;3036;49.960;8.454;2024-03-02T00:57:48;4.50;;;3.03;;
6015;SDS011;3036;49.960;8.454;2024-03-02T01:00:15;3.43;;;3.00;;
6015;SDS011;3036;49.960;8.454;2024-03-02T01:02:43;5.60;;;3.80;;
6015;SDS011;3036;49.960;8.454;2024-03-02T01:05:11;3.67;;;3.37;;
6015;SDS011;3036;49.960;8.454;2024-03-02T01:07:38;8.90;;;4.83;;
6015;SDS011;3036;49.960;8.454;2024-03-02T01:10:07;13.13;;;6.03;;
6015;SDS011;3036;49.960;8.454;2024-03-02T01:12:35;9.80;;;5.80;;
6015;SDS011;3036;49.960;8.454;2024-03-02T01:15:02;8.10;;;4.10;;
6015;SDS011;3036;49.960;8.454;2024-03-02T01:17:31;6.73;;;4.40;;
6015;SDS011;3036;49.960;8.454;2024-03-02T01:19:58;4.83;;;3.70;;
6015;SDS011;3036;49.960;8.454;2024-03-02T01:22:25;4.53;;;3.07;;
6015;SDS011;3036;49.960;8.454;2024-03-02T01:24:52;22.00;;;8.67;;
6015;SDS011;3036;49.960;8.454;2024-03-02T01:27:20;19.57;;;8.67;;
6015;SDS011;3036;49.960;8.454;2024-03-02T01:29:47;9.00;;;3.53;;
6015;SDS011;3036;49.960;8.454;2024-03-02T01:32:14;3.83;;;3.33;;
6015;SDS011;3036;49.960;8.454;2024-03-02T01:34:41;3.73;;;3.37;;
6015;SDS011;3036;49.960;8.454;2024-03-02T01:37:08;3.07;;;2.87;;
6015;SDS011;3036;49.960;8.454;2024-03-02T01:39:36;2.97;;;2.77;;
6015;SDS011;3036;49.960;8.454;2024-03-02T01:42:03;4.40;;;2.77;;
6015;SDS011;3036;49.960;8.454;2024-03-02T01:44:31;2.50;;;2.30;;
6015;SDS011;3036;49.960;8.454;2024-03-02T01:46:58;2.60;;;2.40;;
6015;SDS011;3036;49.960;8.454;2024-03-02T01:49:26;4.50;;;3.07;;
6015;SDS011;3036;49.960;8.454;2024-03-02T01:51:53;14.57;;;4.90;;
6015;SDS011;3036;49.960;8.454;2024-03-02T01:54:20;5.73;;;4.23;;
6015;SDS011;3036;49.960;8.454;2024-03-02T01:56:47;3.40;;;2.87;;
6015;SDS011;3036;49.960;8.454;2024-03-02T01:59:14;4.40;;;3.30;;
6015;SDS011;3036;49.960;8.454;2024-03-02T02:01:42;15.57;;;6.23;;
6015;SDS011;3036;49.960;8.454;2024-03-02T02:04:09;30.80;;;10.47;;
6015;SDS011;3036;49.960;8.454;2024-03-02T02:06:36;19.47;;;8.17;;
6015;SDS011;3036;49.960;8.454;2024-03-02T02:09:03;9.07;;;4.77;;
6015;SDS011;3036;49.960;8.454;2024-03-02T02:11:30;7.97;;;4.20;;
6015;SDS011;3036;49.960;8.454;2024-03-02T02:13:57;4.70;;;3.70;;
6015;SDS011;3036;49.960;8.454;2024-03-02T02:16:24;13.87;;;6.70;;
6015;SDS011;3036;49.960;8.454;2024-03-02T02:18:53;14.80;;;6.80;;
6015;SDS011;3036;49.960;8.454;2024-03-02T02:21:23;11.77;;;5.50;;
6015;SDS011;3036;49.960;8.454;2024-03-02T02:23:51;7.03;;;4.60;;
6015;SDS011;3036;49.960;8.454;2024-03-02T02:26:18;8.67;;;4.43;;
6015;SDS011;3036;49.960;8.454;2024-03-02T02:28:45;4.40;;;3.77;;
6015;SDS011;3036;49.960;8.454;2024-03-02T02:31:12;3.17;;;2.90;;
6015;SDS011;3036;49.960;8.454;2024-03-02T02:33:39;3.50;;;3.30;;
6015;SDS011;3036;49.960;8.454;2024-03-02T02:36:06;3.60;;;3.30;;
6015;SDS011;3036;49.960;8.454;2024-03-02T02:38:37;4.17;;;3.77;;
6015;SDS011;3036;49.960;8.454;2024-03-02T02:41:04;3.97;;;3.27;;
6015;SDS011;3036;49.960;8.454;2024-03-02T02:43:31;4.33;;;2.53;;
6015;SDS011;3036;49.960;8.454;2024-03-02T02:45:58;9.00;;;4.30;;
6015;SDS011;3036;49.960;8.454;2024-03-02T02:48:25;8.87;;;3.77;;
6015;SDS011;3036;49.960;8.454;2024-03-02T02:50:52;8.43;;;4.33;;
6015;SDS011;3036;49.960;8.454;2024-03-02T02:53:19;7.37;;;4.53;;
6015;SDS011;3036;49.960;8.454;2024-03-02T02:55:48;5.90;;;3.53;;
6015;SDS011;3036;49.960;8.454;2024-03-02T02:58:15;4.90;;;3.97;;
6015;SDS011;3036;49.960;8.454;2024-03-02T03:00:42;9.87;;;4.53;;
6015;SDS011;3036;49.960;8.454;2024-03-02T03:03:09;13.97;;;5.20;;
6015;SDS011;3036;49.960;8.454;2024-03-02T03:05:36;8.87;;;4.27;;
6015;SDS011;3036;49.960;8.454;2024-03-02T03:08:03;9.30;;;5.23;;
6015;SDS011;3036;49.960;8.454;2024-03-02T03:10:30;11.27;;;4.60;;
6015;SDS011;3036;49.960;8.454;2024-03-02T03:12:59;6.00;;;3.70;;
6015;SDS011;3036;49.960;8.454;2024-03-02T03:15:26;3.70;;;3.40;;
6015;SDS011;3036;49.960;8.454;2024-03-02T03:17:53;2.93;;;2.73;;
6015;SDS011;3036;49.960;8.454;2024-03-02T03:20:20;2.93;;;2.73;;
6015;SDS011;3036;49.960;8.454;2024-03-02T03:22:48;3.17;;;2.87;;
6015;SDS011;3036;49.960;8.454;2024-03-02T03:25:15;4.10;;;3.63;;
6015;SDS011;3036;49.960;8.454;2024-03-02T03:27:42;5.63;;;3.83;;
6015;SDS011;3036;49.960;8.454;2024-03-02T03:30:11;3.60;;;3.30;;
6015;SDS011;3036;49.960;8.454;2024-03-02T03:32:38;4.67;;;3.60;;
6015;SDS011;3036;49.960;8.454;2024-03-02T03:35:05;3.73;;;3.20;;
6015;SDS011;3036;49.960;8.454;2024-03-02T03:37:33;6.17;;;3.50;;
6015;SDS011;3036;49.960;8.454;2024-03-02T03:40:01;6.27;;;3.73;;
6015;SDS011;3036;49.960;8.454;2024-03-02T03:42:32;4.43;;;3.33;;
6015;SDS011;3036;49.960;8.454;2024-03-02T03:44:59;3.10;;;2.90;;
6015;SDS011;3036;49.960;8.454;2024-03-02T03:47:27;3.30;;;3.00;;
6015;SDS011;3036;49.960;8.454;2024-03-02T03:49:54;3.80;;;3.10;;
6015;SDS011;3036;49.960;8.454;2024-03-02T03:52:21;7.57;;;3.80;;
6015;SDS011;3036;49.960;8.454;2024-03-02T03:54:48;3.97;;;3.60;;
6015;SDS011;3036;49.960;8.454;2024-03-02T03:57:15;3.77;;;3.47;;
6015;SDS011;3036;49.960;8.454;2024-03-02T03:59:42;4.30;;;3.83;;
6015;SDS011;3036;49.960;8.454;2024-03-02T04:02:10;7.83;;;3.83;;
6015;SDS011;3036;49.960;8.454;2024-03-02T04:04:39;3.83;;;3.53;;
6015;SDS011;3036;49.960;8.454;2024-03-02T04:07:06;5.57;;;4.13;;
6015;SDS011;3036;49.960;8.454;2024-03-02T04:09:33;5.33;;;4.27;;
6015;SDS011;3036;49.960;8.454;2024-03-02T04:12:00;6.33;;;4.40;;
6015;SDS011;3036;49.960;8.454;2024-03-02T04:14:27;5.50;;;4.23;;
6015;SDS011;3036;49.960;8.454;2024-03-02T04:16:54;7.17;;;4.30;;
6015;SDS011;3036;49.960;8.454;2024-03-02T04:19:21;6.97;;;4.53;;
6015;SDS011;3036;49.960;8.454;2024-03-02T04:21:49;5.40;;;3.87;;
6015;SDS011;3036;49.960;8.454;2024-03-02T04:24:16;6.67;;;4.50;;
6015;SDS011;3036;49.960;8.454;2024-03-02T04:26:43;7.27;;;4.70;;
6015;SDS011;3036;49.960;8.454;2024-03-02T04:29:10;5.03;;;4.53;;
6015;SDS011;3036;49.960;8.454;2024-03-02T04:31:37;7.00;;;4.77;;
6015;SDS011;3036;49.960;8.454;2024-03-02T04:34:04;7.20;;;4.50;;
6015;SDS011;3036;49.960;8.454;2024-03-02T04:36:31;4.77;;;4.30;;
6015;SDS011;3036;49.960;8.454;2024-03-02T04:39:00;6.13;;;4.90;;
6015;SDS011;3036;49.960;8.454;2024-03-02T04:41:27;4.43;;;4.00;;
6015;SDS011;3036;49.960;8.454;2024-03-02T04:43:54;4.50;;;4.03;;
6015;SDS011;3036;49.960;8.454;2024-03-02T04:46:21;8.60;;;4.60;;
6015;SDS011;3036;49.960;8.454;2024-03-02T04:48:48;4.47;;;3.90;;
6015;SDS011;3036;49.960;8.454;2024-03-02T04:51:20;6.80;;;4.13;;
6015;SDS011;3036;49.960;8.454;2024-03-02T04:53:47;5.63;;;4.27;;
6015;SDS011;3036;49.960;8.454;2024-03-02T04:56:16;8.63;;;4.77;;
6015;SDS011;3036;49.960;8.454;2024-03-02T04:59:04;10.13;;;4.67;;
6015;SDS011;3036;49.960;8.454;2024-03-02T05:01:31;5.50;;;4.33;;
6015;SDS011;3036;49.960;8.454;2024-03-02T05:03:58;5.87;;;4.40;;
6015;SDS011;3036;49.960;8.454;2024-03-02T05:06:25;7.07;;;5.00;;
6015;SDS011;3036;49.960;8.454;2024-03-02T05:08:52;11.33;;;4.87;;
6015;SDS011;3036;49.960;8.454;2024-03-02T05:11:20;7.43;;;4.67;;
6015;SDS011;3036;49.960;8.454;2024-03-02T05:14:05;7.37;;;4.90;;
6015;SDS011;3036;49.960;8.454;2024-03-02T05:16:33;8.13;;;5.20;;
6015;SDS011;3036;49.960;8.454;2024-03-02T05:19:00;8.93;;;5.10;;
6015;SDS011;3036;49.960;8.454;2024-03-02T05:21:27;7.27;;;4.90;;
6015;SDS011;3036;49.960;8.454;2024-03-02T05:23:54;6.97;;;4.73;;
6015;SDS011;3036;49.960;8.454;2024-03-02T05:26:22;7.30;;;4.63;;
6015;SDS011;3036;49.960;8.454;2024-03-02T05:28:50;6.30;;;4.87;;
6015;SDS011;3036;49.960;8.454;2024-03-02T05:31:17;8.33;;;4.80;;
6015;SDS011;3036;49.960;8.454;2024-03-02T05:33:44;6.50;;;4.77;;
6015;SDS011;3036;49.960;8.454;2024-03-02T05:36:11;7.33;;;4.70;;
6015;SDS011;3036;49.960;8.454;2024-03-02T05:38:38;4.93;;;4.37;;
6015;SDS011;3036;49.960;8.454;2024-03-02T05:41:05;5.00;;;4.50;;
6015;SDS011;3036;49.960;8.454;2024-03-02T05:43:33;9.10;;;4.93;;
6015;SDS011;3036;49.960;8.454;2024-03-02T05:46:01;8.23;;;5.47;;
6015;SDS011;3036;49.960;8.454;2024-03-02T05:48:28;7.37;;;5.13;;
6015;SDS011;3036;49.960;8.454;2024-03-02T05:50:55;7.30;;;5.23;;
6015;SDS011;3036;49.960;8.454;2024-03-02T05:53:22;9.20;;;5.40;;
6015;SDS011;3036;49.960;8.454;2024-03-02T05:55:49;6.40;;;5.13;;
6015;SDS011;3036;49.960;8.454;2024-03-02T05:58:20;6.67;;;4.60;;
6015;SDS011;3036;49.960;8.454;2024-03-02T06:00:59;8.17;;;5.00;;
6015;SDS011;3036;49.960;8.454;2024-03-02T06:03:26;6.77;;;5.20;;
6015;SDS011;3036;49.960;8.454;2024-03-02T06:05:53;7.87;;;5.53;;
6015;SDS011;3036;49.960;8.454;2024-03-02T06:08:20;8.23;;;5.00;;
6015;SDS011;3036;49.960;8.454;2024-03-02T06:10:47;10.10;;;5.90;;
6015;SDS011;3036;49.960;8.454;2024-03-02T06:13:14;7.80;;;5.43;;
6015;SDS011;3036;49.960;8.454;2024-03-02T06:15:41;7.43;;;5.37;;
6015;SDS011;3036;49.960;8.454;2024-03-02T06:18:09;7.63;;;5.70;;
6015;SDS011;3036;49.960;8.454;2024-03-02T06:20:36;12.13;;;6.10;;
6015;SDS011;3036;49.960;8.454;2024-03-02T06:23:03;7.53;;;5.30;;
6015;SDS011;3036;49.960;8.454;2024-03-02T06:25:31;9.83;;;5.17;;
6015;SDS011;3036;49.960;8.454;2024-03-02T06:27:58;6.87;;;4.90;;
6015;SDS011;3036;49.960;8.454;2024-03-02T06:30:25;10.47;;;5.80;;
6015;SDS011;3036;49.960;8.454;2024-03-02T06:32:52;7.10;;;4.60;;
6015;SDS011;3036;49.960;8.454;2024-03-02T06:35:21;9.93;;;5.63;;
6015;SDS011;3036;49.960;8.454;2024-03-02T06:37:48;6.70;;;5.10;;
6015;SDS011;3036;49.960;8.454;2024-03-02T06:40:16;9.77;;;6.13;;
6015;SDS011;3036;49.960;8.454;2024-03-02T06:42:43;8.03;;;5.70;;
6015;SDS011;3036;49.960;8.454;2024-03-02T06:45:10;9.97;;;5.40;;
6015;SDS011;3036;49.960;8.454;2024-03-02T06:47:37;10.77;;;5.70;;
6015;SDS011;3036;49.960;8.454;2024-03-02T06:50:04;9.50;;;5.53;;
6015;SDS011;3036;49.960;8.454;2024-03-02T06:52:33;7.57;;;5.67;;
6015;SDS011;3036;49.960;8.454;2024-03-02T06:55:00;9.67;;;6.47;;
6015;SDS011;3036;49.960;8.454;2024-03-02T06:57:27;11.87;;;6.60;;
6015;SDS011;3036;49.960;8.454;2024-03-02T06:59:54;9.33;;;6.07;;
6015;SDS011;3036;49.960;8.454;2024-03-02T07:02:23;12.07;;;6.27;;
6015;SDS011;3036;49.960;8.454;2024-03-02T07:04:51;8.37;;;5.87;;
6015;SDS011;3036;49.960;8.454;2024-03-02T07:07:18;8.97;;;6.10;;
6015;SDS011;3036;49.960;8.454;2024-03-02T07:09:46;7.13;;;5.40;;
6015;SDS011;3036;49.960;8.454;2024-03-02T07:12:13;12.10;;;5.90;;
6015;SDS011;3036;49.960;8.454;2024-03-02T07:14:40;13.10;;;5.53;;
6015;SDS011;3036;49.960;8.454;2024-03-02T07:17:24;11.83;;;6.30;;
6015;SDS011;3036;49.960;8.454;2024-03-02T07:19:52;10.43;;;5.93;;
6015;SDS011;3036;49.960;8.454;2024-03-02T07:22:19;9.83;;;7.07;;
6015;SDS011;3036;49.960;8.454;2024-03-02T07:24:47;9.83;;;6.17;;
6015;SDS011;3036;49.960;8.454;2024-03-02T07:27:15;12.57;;;7.17;;
6015;SDS011;3036;49.960;8.454;2024-03-02T07:29:42;13.30;;;8.07;;
6015;SDS011;3036;49.960;8.454;2024-03-02T07:32:10;10.13;;;6.63;;
6015;SDS011;3036;49.960;8.454;2024-03-02T07:34:37;14.83;;;8.27;;
6015;SDS011;3036;49.960;8.454;2024-03-02T07:37:04;12.40;;;8.57;;
6015;SDS011;3036;49.960;8.454;2024-03-02T07:39:31;15.53;;;9.33;;
6015;SDS011;3036;49.960;8.454;2024-03-02T07:42:00;14.53;;;9.07;;
6015;SDS011;3036;49.960;8.454;2024-03-02T07:44:27;16.33;;;9.23;;
6015;SDS011;3036;49.960;8.454;2024-03-02T07:46:54;17.30;;;9.90;;
6015;SDS011;3036;49.960;8.454;2024-03-02T07:49:21;15.27;;;9.50;;
6015;SDS011;3036;49.960;8.454;2024-03-02T07:51:48;17.23;;;9.47;;
6015;SDS011;3036;49.960;8.454;2024-03-02T07:54:15;14.47;;;9.13;;
6015;SDS011;3036;49.960;8.454;2024-03-02T07:56:42;11.50;;;8.10;;
6015;SDS011;3036;49.960;8.454;2024-03-02T07:59:11;14.50;;;8.80;;
6015;SDS011;3036;49.960;8.454;2024-03-02T08:01:38;16.23;;;8.43;;
6015;SDS011;3036;49.960;8.454;2024-03-02T08:04:05;11.50;;;8.30;;
6015;SDS011;3036;49.960;8.454;2024-03-02T08:06:33;12.30;;;9.10;;
6015;SDS011;3036;49.960;8.454;2024-03-02T08:09:00;14.57;;;8.50;;
6015;SDS011;3036;49.960;8.454;2024-03-02T08:11:29;14.97;;;9.10;;
6015;SDS011;3036;49.960;8.454;2024-03-02T08:13:57;15.23;;;8.83;;
6015;SDS011;3036;49.960;8.454;2024-03-02T08:16:25;15.80;;;8.60;;
6015;SDS011;3036;49.960;8.454;2024-03-02T08:18:52;16.23;;;9.37;;
6015;SDS011;3036;49.960;8.454;2024-03-02T08:21:19;17.67;;;9.30;;
6015;SDS011;3036;49.960;8.454;2024-03-02T08:23:46;15.03;;;8.03;;
6015;SDS011;3036;49.960;8.454;2024-03-02T08:26:14;12.73;;;8.53;;
6015;SDS011;3036;49.960;8.454;2024-03-02T08:28:41;14.23;;;8.63;;
6015;SDS011;3036;49.960;8.454;2024-03-02T08:31:08;15.80;;;9.60;;
6015;SDS011;3036;49.960;8.454;2024-03-02T08:33:36;14.53;;;8.63;;
6015;SDS011;3036;49.960;8.454;2024-03-02T08:36:04;17.43;;;9.00;;
6015;SDS011;3036;49.960;8.454;2024-03-02T08:38:31;14.77;;;8.87;;
6015;SDS011;3036;49.960;8.454;2024-03-02T08:40:58;10.37;;;7.67;;
6015;SDS011;3036;49.960;8.454;2024-03-02T08:43:25;20.00;;;10.03;;
6015;SDS011;3036;49.960;8.454;2024-03-02T08:45:52;15.83;;;9.47;;
6015;SDS011;3036;49.960;8.454;2024-03-02T08:48:19;13.97;;;9.13;;
6015;SDS011;3036;49.960;8.454;2024-03-02T08:50:48;12.90;;;8.53;;
6015;SDS011;3036;49.960;8.454;2024-03-02T08:53:15;10.13;;;7.10;;
6015;SDS011;3036;49.960;8.454;2024-03-02T08:55:43;14.87;;;8.70;;
6015;SDS011;3036;49.960;8.454;2024-03-02T08:58:10;15.60;;;8.83;;
6015;SDS011;3036;49.960;8.454;2024-03-02T09:00:37;10.57;;;7.53;;
6015;SDS011;3036;49.960;8.454;2024-03-02T09:03:04;11.63;;;7.97;;
6015;SDS011;3036;49.960;8.454;2024-03-02T09:05:32;13.70;;;8.97;;
6015;SDS011;3036;49.960;8.454;2024-03-02T09:08:00;12.80;;;7.40;;
6015;SDS011;3036;49.960;8.454;2024-03-02T09:10:28;11.93;;;8.13;;
6015;SDS011;3036;49.960;8.454;2024-03-02T09:12:55;11.80;;;7.97;;
6015;SDS011;3036;49.960;8.454;2024-03-02T09:15:25;15.97;;;7.77;;
6015;SDS011;3036;49.960;8.454;2024-03-02T09:17:53;10.93;;;7.97;;
6015;SDS011;3036;49.960;8.454;2024-03-02T09:20:20;9.90;;;6.43;;
6015;SDS011;3036;49.960;8.454;2024-03-02T09:22:50;12.60;;;7.27;;
6015;SDS011;3036;49.960;8.454;2024-03-02T09:25:17;10.67;;;7.50;;
6015;SDS011;3036;49.960;8.454;2024-03-02T09:27:44;16.23;;;7.70;;
6015;SDS011;3036;49.960;8.454;2024-03-02T09:30:12;9.57;;;7.73;;
6015;SDS011;3036;49.960;8.454;2024-03-02T09:32:39;13.60;;;8.60;;
6015;SDS011;3036;49.960;8.454;2024-03-02T09:35:07;11.73;;;8.90;;
6015;SDS011;3036;49.960;8.454;2024-03-02T09:37:34;12.13;;;6.87;;
6015;SDS011;3036;49.960;8.454;2024-03-02T09:40:01;11.80;;;7.23;;
6015;SDS011;3036;49.960;8.454;2024-03-02T09:42:30;10.47;;;7.70;;
6015;SDS011;3036;49.960;8.454;2024-03-02T09:45:00;12.47;;;7.73;;
6015;SDS011;3036;49.960;8.454;2024-03-02T09:47:27;10.77;;;7.57;;
6015;SDS011;3036;49.960;8.454;2024-03-02T09:49:54;10.03;;;6.80;;
6015;SDS011;3036;49.960;8.454;2024-03-02T09:52:22;10.27;;;6.93;;
6015;SDS011;3036;49.960;8.454;2024-03-02T09:54:49;11.00;;;7.20;;
6015;SDS011;3036;49.960;8.454;2024-03-02T09:57:16;13.27;;;8.23;;
6015;SDS011;3036;49.960;8.454;2024-03-02T09:59:44;9.67;;;8.00;;
6015;SDS011;3036;49.960;8.454;2024-03-02T10:02:11;13.90;;;8.03;;
6015;SDS011;3036;49.960;8.454;2024-03-02T10:04:38;7.70;;;5.73;;
6015;SDS011;3036;49.960;8.454;2024-03-02T10:07:09;8.67;;;6.17;;
6015;SDS011;3036;49.960;8.454;2024-03-02T10:09:39;7.97;;;6.30;;
6015;SDS011;3036;49.960;8.454;2024-03-02T10:12:07;7.93;;;6.00;;
6015;SDS011;3036;49.960;8.454;2024-03-02T10:14:34;7.97;;;6.27;;
6015;SDS011;3036;49.960;8.454;2024-03-02T10:17:04;7.60;;;5.97;;
6015;SDS011;3036;49.960;8.454;2024-03-02T10:19:32;8.60;;;6.17;;
6015;SDS011;3036;49.960;8.454;2024-03-02T10:22:00;9.43;;;6.37;;
6015;SDS011;3036;49.960;8.454;2024-03-02T10:24:27;7.33;;;5.93;;
6015;SDS011;3036;49.960;8.454;2024-03-02T10:26:55;11.33;;;7.20;;
6015;SDS011;3036;49.960;8.454;2024-03-02T10:29:29;7.47;;;6.10;;
6015;SDS011;3036;49.960;8.454;2024-03-02T10:31:56;8.27;;;6.43;;
6015;SDS011;3036;49.960;8.454;2024-03-02T10:34:27;9.27;;;6.70;;
6015;SDS011;3036;49.960;8.454;2024-03-02T10:36:54;8.17;;;6.77;;
6015;SDS011;3036;49.960;8.454;2024-03-02T10:39:21;6.70;;;6.03;;
6015;SDS011;3036;49.960;8.454;2024-03-02T10:41:50;8.47;;;6.47;;
6015;SDS011;3036;49.960;8.454;2024-03-02T10:44:21;7.80;;;6.23;;
6015;SDS011;3036;49.960;8.454;2024-03-02T10:46:49;7.17;;;5.90;;
6015;SDS011;3036;49.960;8.454;2024-03-02T10:49:16;9.97;;;6.23;;
6015;SDS011;3036;49.960;8.454;2024-03-02T10:51:45;7.60;;;5.17;;
6015;SDS011;3036;49.960;8.454;2024-03-02T10:54:12;5.83;;;5.23;;
6015;SDS011;3036;49.960;8.454;2024-03-02T10:56:39;5.43;;;4.70;;
6015;SDS011;3036;49.960;8.454;2024-03-02T10:59:11;6.80;;;4.73;;
6015;SDS011;3036;49.960;8.454;2024-03-02T11:01:41;8.07;;;5.33;;
6015;SDS011;3036;49.960;8.454;2024-03-02T11:04:11;6.20;;;4.27;;
6015;SDS011;3036;49.960;8.454;2024-03-02T11:06:41;7.47;;;5.03;;
6015;SDS011;3036;49.960;8.454;2024-03-02T11:09:10;4.83;;;4.40;;
6015;SDS011;3036;49.960;8.454;2024-03-02T11:11:40;6.30;;;5.37;;
6015;SDS011;3036;49.960;8.454;2024-03-02T11:14:07;5.30;;;4.20;;
6015;SDS011;3036;49.960;8.454;2024-03-02T11:16:39;5.30;;;4.37;;
6015;SDS011;3036;49.960;8.454;2024-03-02T11:19:12;5.93;;;4.50;;
6015;SDS011;3036;49.960;8.454;2024-03-02T11:21:43;5.27;;;4.73;;
6015;SDS011;3036;49.960;8.454;2024-03-02T11:24:29;6.77;;;3.50;;
6015;SDS011;3036;49.960;8.454;2024-03-02T11:26:59;3.53;;;3.27;;
6015;SDS011;3036;49.960;8.454;2024-03-02T11:29:45;3.73;;;3.17;;
6015;SDS011;3036;49.960;8.454;2024-03-02T11:32:15;3.53;;;3.23;;
6015;SDS011;3036;49.960;8.454;2024-03-02T11:34:43;3.50;;;3.23;;
6015;SDS011;3036;49.960;8.454;2024-03-02T11:37:11;3.97;;;3.30;;
6015;SDS011;3036;49.960;8.454;2024-03-02T11:39:41;2.87;;;2.70;;
6015;SDS011;3036;49.960;8.454;2024-03-02T11:42:09;3.97;;;3.57;;
6015;SDS011;3036;49.960;8.454;2024-03-02T11:44:36;4.43;;;4.00;;
6015;SDS011;3036;49.960;8.454;2024-03-02T11:47:06;3.13;;;2.83;;
6015;SDS011;3036;49.960;8.454;2024-03-02T11:49:36;3.93;;;3.50;;
6015;SDS011;3036;49.960;8.454;2024-03-02T11:52:07;2.80;;;2.53;;
6015;SDS011;3036;49.960;8.454;2024-03-02T11:54:34;3.37;;;3.07;;
6015;SDS011;3036;49.960;8.454;2024-03-02T11:57:03;3.10;;;2.80;;
6015;SDS011;3036;49.960;8.454;2024-03-02T11:59:30;3.07;;;2.83;;
6015;SDS011;3036;49.960;8.454;2024-03-02T12:02:03;3.27;;;2.43;;
6015;SDS011;3036;49.960;8.454;2024-03-02T12:04:30;3.30;;;2.30;;
6015;SDS011;3036;49.960;8.454;2024-03-02T12:07:00;2.83;;;2.60;;
6015;SDS011;3036;49.960;8.454;2024-03-02T12:09:27;5.97;;;2.57;;
6015;SDS011;3036;49.960;8.454;2024-03-02T12:12:01;2.47;;;2.28;;
6015;SDS011;3036;49.960;8.454;2024-03-02T12:14:30;4.27;;;2.03;;
6015;SDS011;3036;49.960;8.454;2024-03-02T12:17:05;2.40;;;2.20;;
6015;SDS011;3036;49.960;8.454;2024-03-02T12:19:34;1.77;;;1.73;;
6015;SDS011;3036;49.960;8.454;2024-03-02T12:22:01;2.13;;;2.07;;
6015;SDS011;3036;49.960;8.454;2024-03-02T12:24:34;2.03;;;1.93;;
6015;SDS011;3036;49.960;8.454;2024-03-02T12:27:02;3.10;;;2.17;;
6015;SDS011;3036;49.960;8.454;2024-03-02T12:29:31;2.00;;;1.90;;
6015;SDS011;3036;49.960;8.454;2024-03-02T12:31:59;1.57;;;1.57;;
6015;SDS011;3036;49.960;8.454;2024-03-02T12:34:27;2.10;;;2.00;;
6015;SDS011;3036;49.960;8.454;2024-03-02T12:36:54;3.75;;;1.42;;
6015;SDS011;3036;49.960;8.454;2024-03-02T12:39:21;1.77;;;1.67;;
6015;SDS011;3036;49.960;8.454;2024-03-02T12:41:49;1.52;;;1.42;;
6015;SDS011;3036;49.960;8.454;2024-03-02T12:44:16;1.33;;;1.30;;
6015;SDS011;3036;49.960;8.454;2024-03-02T12:46:45;1.35;;;1.35;;
6015;SDS011;3036;49.960;8.454;2024-03-02T12:49:12;1.75;;;1.65;;
6015;SDS011;3036;49.960;8.454;2024-03-02T12:51:41;1.63;;;1.25;;
6015;SDS011;3036;49.960;8.454;2024-03-02T12:54:08;1.10;;;1.10;;
6015;SDS011;3036;49.960;8.454;2024-03-02T12:56:36;0.70;;;0.70;;
6015;SDS011;3036;49.960;8.454;2024-03-02T12:59:03;0.90;;;0.90;;
6015;SDS011;3036;49.960;8.454;2024-03-02T13:01:30;1.23;;;1.23;;
6015;SDS011;3036;49.960;8.454;2024-03-02T13:03:59;0.80;;;0.80;;
6015;SDS011;3036;49.960;8.454;2024-03-02T13:06:26;1.40;;;1.40;;
6015;SDS011;3036;49.960;8.454;2024-03-02T13:08:54;1.55;;;1.45;;
6015;SDS011;3036;49.960;8.454;2024-03-02T13:11:22;3.22;;;1.67;;
6015;SDS011;3036;49.960;8.454;2024-03-02T13:13:49;5.28;;;4.35;;
6015;SDS011;3036;49.960;8.454;2024-03-02T13:16:17;4.28;;;2.50;;
6015;SDS011;3036;49.960;8.454;2024-03-02T13:18:46;1.75;;;1.65;;
6015;SDS011;3036;49.960;8.454;2024-03-02T13:21:14;2.58;;;1.55;;
6015;SDS011;3036;49.960;8.454;2024-03-02T13:23:41;2.80;;;2.60;;
6015;SDS011;3036;49.960;8.454;2024-03-02T13:26:08;1.85;;;1.75;;
6015;SDS011;3036;49.960;8.454;2024-03-02T13:28:37;1.48;;;1.38;;
6015;SDS011;3036;49.960;8.454;2024-03-02T13:31:04;1.63;;;1.52;;
6015;SDS011;3036;49.960;8.454;2024-03-02T13:33:32;1.88;;;1.77;;
6015;SDS011;3036;49.960;8.454;2024-03-02T13:35:59;1.88;;;1.73;;
6015;SDS011;3036;49.960;8.454;2024-03-02T13:38:28;5.32;;;1.70;;
6015;SDS011;3036;49.960;8.454;2024-03-02T13:40:55;2.10;;;1.92;;
6015;SDS011;3036;49.960;8.454;2024-03-02T13:43:22;1.67;;;1.55;;
6015;SDS011;3036;49.960;8.454;2024-03-02T13:45:49;2.05;;;1.67;;
6015;SDS011;3036;49.960;8.454;2024-03-02T13:48:18;1.35;;;1.35;;
6015;SDS011;3036;49.960;8.454;2024-03-02T13:50:44;1.65;;;1.55;;
6015;SDS011;3036;49.960;8.454;2024-03-02T13:53:11;4.32;;;1.60;;
6015;SDS011;3036;49.960;8.454;2024-03-02T13:55:40;4.20;;;1.35;;
6015;SDS011;3036;49.960;8.454;2024-03-02T13:58:08;1.50;;;1.50;;
6015;SDS011;3036;49.960;8.454;2024-03-02T14:00:35;1.65;;;1.40;;
6015;SDS011;3036;49.960;8.454;2024-03-02T14:03:02;1.05;;;1.05;;
6015;SDS011;3036;49.960;8.454;2024-03-02T14:05:29;1.23;;;1.23;;
6015;SDS011;3036;49.960;8.454;2024-03-02T14:07:57;2.72;;;1.70;;
6015;SDS011;3036;49.960;8.454;2024-03-02T14:10:28;2.05;;;1.50;;
6015;SDS011;3036;49.960;8.454;2024-03-02T14:12:56;1.77;;;1.35;;
6015;SDS011;3036;49.960;8.454;2024-03-02T14:15:23;1.17;;;1.17;;
6015;SDS011;3036;49.960;8.454;2024-03-02T14:17:50;1.50;;;1.40;;
6015;SDS011;3036;49.960;8.454;2024-03-02T14:20:17;2.53;;;1.88;;
6015;SDS011;3036;49.960;8.454;2024-03-02T14:22:47;1.23;;;1.23;;
6015;SDS011;3036;49.960;8.454;2024-03-02T14:25:14;3.30;;;2.13;;
6015;SDS011;3036;49.960;8.454;2024-03-02T14:27:41;2.13;;;1.30;;
6015;SDS011;3036;49.960;8.454;2024-03-02T14:30:09;1.80;;;1.38;;
6015;SDS011;3036;49.960;8.454;2024-03-02T14:32:36;1.10;;;1.10;;
6015;SDS011;3036;49.960;8.454;2024-03-02T14:35:03;1.20;;;1.20;;
6015;SDS011;3036;49.960;8.454;2024-03-02T14:37:35;1.20;;;1.10;;
6015;SDS011;3036;49.960;8.454;2024-03-02T14:40:02;1.33;;;1.33;;
6015;SDS011;3036;49.960;8.454;2024-03-02T14:42:31;1.15;;;1.15;;
6015;SDS011;3036;49.960;8.454;2024-03-02T14:44:58;1.30;;;1.25;;
6015;SDS011;3036;49.960;8.454;2024-03-02T14:47:29;1.48;;;1.20;;
6015;SDS011;3036;49.960;8.454;2024-03-02T14:49:56;2.30;;;1.08;;
6015;SDS011;3036;49.960;8.454;2024-03-02T14:52:23;2.00;;;1.42;;
6015;SDS011;3036;49.960;8.454;2024-03-02T14:54:53;1.17;;;1.17;;
6015;SDS011;3036;49.960;8.454;2024-03-02T14:57:20;1.10;;;1.10;;
6015;SDS011;3036;49.960;8.454;2024-03-02T14:59:47;1.33;;;1.20;;
6015;SDS011;3036;49.960;8.454;2024-03-02T15:02:14;1.67;;;1.58;;
6015;SDS011;3036;49.960;8.454;2024-03-02T15:04:43;1.60;;;1.50;;
6015;SDS011;3036;49.960;8.454;2024-03-02T15:07:12;2.17;;;1.45;;
6015;SDS011;3036;49.960;8.454;2024-03-02T15:09:39;1.38;;;1.38;;
6015;SDS011;3036;49.960;8.454;2024-03-02T15:12:07;2.17;;;1.67;;
6015;SDS011;3036;49.960;8.454;2024-03-02T15:14:37;1.92;;;1.83;;
6015;SDS011;3036;49.960;8.454;2024-03-02T15:17:10;2.28;;;1.70;;